sensor_id;sensor_type;location;lat;lon;timestamp;P1;durP1;ratioP1;P2;durP2;ratioP2
24617;SDS011;12762;51.730;5.356;2024-03-25T00:00:28;14.53;;;2.17;;
24617;SDS011;12762;51.730;5.356;2024-03-25T00:02:54;15.67;;;2.83;;
24617;SDS011;12762;51.730;5.356;2024-03-25T00:05:20;19.07;;;3.43;;
24617;SDS011;12762;51.730;5.356;2024-03-25T00:07:52;20.30;;;4.20;;
24617;SDS011;12762;51.730;5.356;2024-03-25T00:10:18;19.87;;;3.47;;
24617;SDS011;12762;51.730;5.356;2024-03-25T00:12:46;16.67;;;2.93;;
24617;SDS011;12762;51.730;5.356;2024-03-25T00:15:12;20.17;;;3.00;;
24617;SDS011;12762;51.730;5.356;2024-03-25T00:17:38;21.43;;;3.73;;
24617;SDS011;12762;51.730;5.356;2024-03-25T00:20:04;17.80;;;3.37;;
24617;SDS011;12762;51.730;5.356;2024-03-25T00:22:34;14.00;;;2.30;;
24617;SDS011;12762;51.730;5.356;2024-03-25T00:25:00;13.07;;;2.60;;
24617;SDS011;12762;51.730;5.356;2024-03-25T00:27:26;12.27;;;2.50;;
24617;SDS011;12762;51.730;5.356;2024-03-25T00:29:51;15.83;;;3.07;;
24617;SDS011;12762;51.730;5.356;2024-03-25T00:32:17;19.23;;;3.13;;
24617;SDS011;12762;51.730;5.356;2024-03-25T00:34:43;18.83;;;2.53;;
24617;SDS011;12762;51.730;5.356;2024-03-25T00:37:09;15.30;;;3.00;;
24617;SDS011;12762;51.730;5.356;2024-03-25T00:39:34;15.73;;;2.97;;
24617;SDS011;12762;51.730;5.356;2024-03-25T00:42:00;17.13;;;3.00;;
24617;SDS011;12762;51.730;5.356;2024-03-25T00:44:26;11.03;;;3.10;;
24617;SDS011;12762;51.730;5.356;2024-03-25T00:46:52;19.40;;;3.83;;
24617;SDS011;12762;51.730;5.356;2024-03-25T00:49:18;24.27;;;3.20;;
24617;SDS011;12762;51.730;5.356;2024-03-25T00:51:44;20.77;;;3.33;;
24617;SDS011;12762;51.730;5.356;2024-03-25T00:54:10;21.43;;;2.37;;
24617;SDS011;12762;51.730;5.356;2024-03-25T00:56:35;16.47;;;2.43;;
24617;SDS011;12762;51.730;5.356;2024-03-25T00:59:04;21.30;;;3.10;;
24617;SDS011;12762;51.730;5.356;2024-03-25T01:01:31;15.87;;;3.73;;
24617;SDS011;12762;51.730;5.356;2024-03-25T01:04:03;13.17;;;2.80;;
24617;SDS011;12762;51.730;5.356;2024-03-25T01:06:29;23.67;;;3.63;;
24617;SDS011;12762;51.730;5.356;2024-03-25T01:08:55;13.23;;;3.50;;
24617;SDS011;12762;51.730;5.356;2024-03-25T01:11:21;16.93;;;3.30;;
24617;SDS011;12762;51.730;5.356;2024-03-25T01:13:47;18.20;;;2.67;;
24617;SDS011;12762;51.730;5.356;2024-03-25T01:16:14;17.80;;;3.00;;
24617;SDS011;12762;51.730;5.356;2024-03-25T01:18:40;15.30;;;2.83;;
24617;SDS011;12762;51.730;5.356;2024-03-25T01:21:08;14.13;;;2.70;;
24617;SDS011;12762;51.730;5.356;2024-03-25T01:23:34;12.97;;;3.00;;
24617;SDS011;12762;51.730;5.356;2024-03-25T01:26:00;17.10;;;2.73;;
24617;SDS011;12762;51.730;5.356;2024-03-25T01:28:26;20.77;;;3.70;;
24617;SDS011;12762;51.730;5.356;2024-03-25T01:30:52;20.13;;;3.10;;
24617;SDS011;12762;51.730;5.356;2024-03-25T01:33:19;20.30;;;3.50;;
24617;SDS011;12762;51.730;5.356;2024-03-25T01:35:45;15.33;;;2.93;;
24617;SDS011;12762;51.730;5.356;2024-03-25T01:38:11;17.53;;;3.20;;
24617;SDS011;12762;51.730;5.356;2024-03-25T01:40:36;16.53;;;3.53;;
24617;SDS011;12762;51.730;5.356;2024-03-25T01:43:03;25.00;;;3.43;;
24617;SDS011;12762;51.730;5.356;2024-03-25T01:45:29;16.13;;;2.73;;
24617;SDS011;12762;51.730;5.356;2024-03-25T01:47:57;12.77;;;3.07;;
24617;SDS011;12762;51.730;5.356;2024-03-25T01:50:24;14.53;;;2.83;;
24617;SDS011;12762;51.730;5.356;2024-03-25T01:52:50;14.83;;;2.93;;
24617;SDS011;12762;51.730;5.356;2024-03-25T01:55:26;17.13;;;3.87;;
24617;SDS011;12762;51.730;5.356;2024-03-25T01:57:53;21.27;;;3.23;;
24617;SDS011;12762;51.730;5.356;2024-03-25T02:00:19;17.87;;;3.20;;
24617;SDS011;12762;51.730;5.356;2024-03-25T02:02:46;15.17;;;3.30;;
24617;SDS011;12762;51.730;5.356;2024-03-25T02:05:16;20.83;;;3.30;;
24617;SDS011;12762;51.730;5.356;2024-03-25T02:07:43;18.67;;;3.77;;
24617;SDS011;12762;51.730;5.356;2024-03-25T02:10:09;18.80;;;3.83;;
24617;SDS011;12762;51.730;5.356;2024-03-25T02:12:39;19.97;;;3.50;;
24617;SDS011;12762;51.730;5.356;2024-03-25T02:15:09;15.63;;;3.10;;
24617;SDS011;12762;51.730;5.356;2024-03-25T02:17:37;16.97;;;3.13;;
24617;SDS011;12762;51.730;5.356;2024-03-25T02:20:03;18.10;;;3.17;;
24617;SDS011;12762;51.730;5.356;2024-03-25T02:22:35;17.23;;;3.40;;
24617;SDS011;12762;51.730;5.356;2024-03-25T02:25:02;14.47;;;3.03;;
24617;SDS011;12762;51.730;5.356;2024-03-25T02:27:38;22.53;;;3.80;;
24617;SDS011;12762;51.730;5.356;2024-03-25T02:30:10;15.53;;;2.97;;
24617;SDS011;12762;51.730;5.356;2024-03-25T02:32:38;15.63;;;3.27;;
24617;SDS011;12762;51.730;5.356;2024-03-25T02:35:12;18.87;;;3.33;;
24617;SDS011;12762;51.730;5.356;2024-03-25T02:37:40;13.37;;;2.97;;
24617;SDS011;12762;51.730;5.356;2024-03-25T02:40:09;14.93;;;3.00;;
24617;SDS011;12762;51.730;5.356;2024-03-25T02:42:36;13.63;;;3.10;;
24617;SDS011;12762;51.730;5.356;2024-03-25T02:45:05;12.97;;;2.40;;
24617;SDS011;12762;51.730;5.356;2024-03-25T02:47:31;17.23;;;3.33;;
24617;SDS011;12762;51.730;5.356;2024-03-25T02:49:57;14.87;;;2.40;;
24617;SDS011;12762;51.730;5.356;2024-03-25T02:52:23;18.37;;;2.60;;
24617;SDS011;12762;51.730;5.356;2024-03-25T02:54:49;21.43;;;3.83;;
24617;SDS011;12762;51.730;5.356;2024-03-25T02:57:15;16.00;;;3.00;;
24617;SDS011;12762;51.730;5.356;2024-03-25T02:59:41;17.37;;;3.27;;
24617;SDS011;12762;51.730;5.356;2024-03-25T03:02:07;17.07;;;3.03;;
24617;SDS011;12762;51.730;5.356;2024-03-25T03:04:33;18.60;;;3.47;;
24617;SDS011;12762;51.730;5.356;2024-03-25T03:06:58;10.17;;;3.00;;
24617;SDS011;12762;51.730;5.356;2024-03-25T03:09:24;19.80;;;3.27;;
24617;SDS011;12762;51.730;5.356;2024-03-25T03:11:50;16.87;;;3.37;;
24617;SDS011;12762;51.730;5.356;2024-03-25T03:14:16;18.43;;;2.67;;
24617;SDS011;12762;51.730;5.356;2024-03-25T03:16:42;16.20;;;3.20;;
24617;SDS011;12762;51.730;5.356;2024-03-25T03:19:08;21.97;;;3.50;;
24617;SDS011;12762;51.730;5.356;2024-03-25T03:21:34;16.63;;;2.77;;
24617;SDS011;12762;51.730;5.356;2024-03-25T03:24:00;19.13;;;2.30;;
24617;SDS011;12762;51.730;5.356;2024-03-25T03:26:25;21.97;;;3.33;;
24617;SDS011;12762;51.730;5.356;2024-03-25T03:28:53;13.20;;;2.97;;
24617;SDS011;12762;51.730;5.356;2024-03-25T03:31:19;15.83;;;3.30;;
24617;SDS011;12762;51.730;5.356;2024-03-25T03:33:47;17.53;;;3.50;;
24617;SDS011;12762;51.730;5.356;2024-03-25T03:36:14;16.27;;;2.43;;
24617;SDS011;12762;51.730;5.356;2024-03-25T03:38:44;26.77;;;3.80;;
24617;SDS011;12762;51.730;5.356;2024-03-25T03:41:10;18.97;;;3.50;;
24617;SDS011;12762;51.730;5.356;2024-03-25T03:43:36;16.17;;;3.57;;
24617;SDS011;12762;51.730;5.356;2024-03-25T03:46:02;19.17;;;3.97;;
24617;SDS011;12762;51.730;5.356;2024-03-25T03:48:28;11.83;;;2.63;;
24617;SDS011;12762;51.730;5.356;2024-03-25T03:50:54;12.67;;;3.13;;
24617;SDS011;12762;51.730;5.356;2024-03-25T03:53:22;14.03;;;2.93;;
24617;SDS011;12762;51.730;5.356;2024-03-25T03:58:24;17.73;;;3.90;;
24617;SDS011;12762;51.730;5.356;2024-03-25T04:00:51;15.83;;;3.13;;
24617;SDS011;12762;51.730;5.356;2024-03-25T04:03:19;16.50;;;2.97;;
24617;SDS011;12762;51.730;5.356;2024-03-25T04:05:46;18.77;;;3.50;;
24617;SDS011;12762;51.730;5.356;2024-03-25T04:08:11;14.00;;;2.93;;
24617;SDS011;12762;51.730;5.356;2024-03-25T04:10:37;18.33;;;2.93;;
24617;SDS011;12762;51.730;5.356;2024-03-25T04:13:04;18.77;;;4.57;;
24617;SDS011;12762;51.730;5.356;2024-03-25T04:15:36;15.23;;;2.53;;
24617;SDS011;12762;51.730;5.356;2024-03-25T04:18:07;13.37;;;3.33;;
24617;SDS011;12762;51.730;5.356;2024-03-25T04:20:39;15.50;;;2.50;;
24617;SDS011;12762;51.730;5.356;2024-03-25T04:23:06;19.93;;;3.17;;
24617;SDS011;12762;51.730;5.356;2024-03-25T04:25:32;18.67;;;3.43;;
24617;SDS011;12762;51.730;5.356;2024-03-25T04:28:03;12.23;;;3.20;;
24617;SDS011;12762;51.730;5.356;2024-03-25T04:30:29;23.37;;;4.23;;
24617;SDS011;12762;51.730;5.356;2024-03-25T04:32:55;22.00;;;3.33;;
24617;SDS011;12762;51.730;5.356;2024-03-25T04:35:20;17.00;;;2.90;;
24617;SDS011;12762;51.730;5.356;2024-03-25T04:37:46;20.47;;;3.70;;
24617;SDS011;12762;51.730;5.356;2024-03-25T04:40:12;15.73;;;3.20;;
24617;SDS011;12762;51.730;5.356;2024-03-25T04:42:39;18.30;;;3.30;;
24617;SDS011;12762;51.730;5.356;2024-03-25T04:45:06;24.77;;;3.57;;
24617;SDS011;12762;51.730;5.356;2024-03-25T04:47:32;19.47;;;3.73;;
24617;SDS011;12762;51.730;5.356;2024-03-25T04:49:58;17.90;;;3.60;;
24617;SDS011;12762;51.730;5.356;2024-03-25T04:52:23;11.63;;;3.03;;
24617;SDS011;12762;51.730;5.356;2024-03-25T04:54:51;16.27;;;3.67;;
24617;SDS011;12762;51.730;5.356;2024-03-25T04:57:17;18.00;;;3.87;;
24617;SDS011;12762;51.730;5.356;2024-03-25T04:59:43;14.67;;;3.33;;
24617;SDS011;12762;51.730;5.356;2024-03-25T05:02:08;20.87;;;3.97;;
24617;SDS011;12762;51.730;5.356;2024-03-25T05:04:37;26.10;;;4.40;;
24617;SDS011;12762;51.730;5.356;2024-03-25T05:07:03;18.37;;;3.10;;
24617;SDS011;12762;51.730;5.356;2024-03-25T05:09:29;18.60;;;3.20;;
24617;SDS011;12762;51.730;5.356;2024-03-25T05:11:54;27.53;;;4.30;;
24617;SDS011;12762;51.730;5.356;2024-03-25T05:14:20;15.73;;;3.73;;
24617;SDS011;12762;51.730;5.356;2024-03-25T05:16:49;18.97;;;3.87;;
24617;SDS011;12762;51.730;5.356;2024-03-25T05:19:17;16.43;;;4.37;;
24617;SDS011;12762;51.730;5.356;2024-03-25T05:21:43;18.63;;;3.70;;
24617;SDS011;12762;51.730;5.356;2024-03-25T05:24:09;20.37;;;4.73;;
24617;SDS011;12762;51.730;5.356;2024-03-25T05:26:35;19.10;;;4.93;;
24617;SDS011;12762;51.730;5.356;2024-03-25T05:29:01;17.63;;;4.33;;
24617;SDS011;12762;51.730;5.356;2024-03-25T05:31:27;18.73;;;4.40;;
24617;SDS011;12762;51.730;5.356;2024-03-25T05:33:53;14.13;;;3.60;;
24617;SDS011;12762;51.730;5.356;2024-03-25T05:36:19;21.33;;;5.23;;
24617;SDS011;12762;51.730;5.356;2024-03-25T05:38:45;18.00;;;5.30;;
24617;SDS011;12762;51.730;5.356;2024-03-25T05:41:11;16.40;;;5.53;;
24617;SDS011;12762;51.730;5.356;2024-03-25T05:43:37;22.80;;;6.40;;
24617;SDS011;12762;51.730;5.356;2024-03-25T05:46:03;19.37;;;6.20;;
24617;SDS011;12762;51.730;5.356;2024-03-25T05:48:32;21.43;;;6.03;;
24617;SDS011;12762;51.730;5.356;2024-03-25T05:50:59;21.33;;;6.70;;
24617;SDS011;12762;51.730;5.356;2024-03-25T05:53:30;17.73;;;7.23;;
24617;SDS011;12762;51.730;5.356;2024-03-25T05:55:56;19.23;;;7.77;;
24617;SDS011;12762;51.730;5.356;2024-03-25T05:58:24;26.10;;;8.10;;
24617;SDS011;12762;51.730;5.356;2024-03-25T06:00:50;20.70;;;8.50;;
24617;SDS011;12762;51.730;5.356;2024-03-25T06:03:16;29.37;;;9.57;;
24617;SDS011;12762;51.730;5.356;2024-03-25T06:05:43;21.43;;;7.47;;
24617;SDS011;12762;51.730;5.356;2024-03-25T06:08:09;25.27;;;7.87;;
24617;SDS011;12762;51.730;5.356;2024-03-25T06:10:43;22.07;;;8.37;;
24617;SDS011;12762;51.730;5.356;2024-03-25T06:13:09;23.27;;;10.10;;
24617;SDS011;12762;51.730;5.356;2024-03-25T06:15:35;27.00;;;9.57;;
24617;SDS011;12762;51.730;5.356;2024-03-25T06:18:01;24.80;;;10.67;;
24617;SDS011;12762;51.730;5.356;2024-03-25T06:20:27;35.97;;;11.63;;
24617;SDS011;12762;51.730;5.356;2024-03-25T06:22:53;24.60;;;10.83;;
24617;SDS011;12762;51.730;5.356;2024-03-25T06:25:18;21.97;;;9.53;;
24617;SDS011;12762;51.730;5.356;2024-03-25T06:27:44;26.57;;;9.93;;
24617;SDS011;12762;51.730;5.356;2024-03-25T06:30:10;33.37;;;10.07;;
24617;SDS011;12762;51.730;5.356;2024-03-25T06:32:55;27.63;;;11.83;;
24617;SDS011;12762;51.730;5.356;2024-03-25T06:35:42;26.53;;;10.37;;
24617;SDS011;12762;51.730;5.356;2024-03-25T06:38:08;22.97;;;9.97;;
24617;SDS011;12762;51.730;5.356;2024-03-25T06:40:37;26.40;;;11.00;;
24617;SDS011;12762;51.730;5.356;2024-03-25T06:43:04;24.00;;;9.63;;
24617;SDS011;12762;51.730;5.356;2024-03-25T06:45:29;26.80;;;10.33;;
24617;SDS011;12762;51.730;5.356;2024-03-25T06:47:56;27.27;;;10.77;;
24617;SDS011;12762;51.730;5.356;2024-03-25T06:50:23;30.33;;;11.73;;
24617;SDS011;12762;51.730;5.356;2024-03-25T06:52:49;28.03;;;11.13;;
24617;SDS011;12762;51.730;5.356;2024-03-25T06:55:15;24.90;;;11.30;;
24617;SDS011;12762;51.730;5.356;2024-03-25T06:57:42;26.80;;;10.70;;
24617;SDS011;12762;51.730;5.356;2024-03-25T07:18:55;26.37;;;12.13;;
24617;SDS011;12762;51.730;5.356;2024-03-25T07:21:21;26.50;;;12.40;;
24617;SDS011;12762;51.730;5.356;2024-03-25T07:23:47;30.90;;;12.70;;
24617;SDS011;12762;51.730;5.356;2024-03-25T07:26:13;24.90;;;11.53;;
24617;SDS011;12762;51.730;5.356;2024-03-25T07:28:38;25.47;;;11.33;;
24617;SDS011;12762;51.730;5.356;2024-03-25T07:31:04;26.80;;;12.43;;
24617;SDS011;12762;51.730;5.356;2024-03-25T07:33:31;25.17;;;11.70;;
24617;SDS011;12762;51.730;5.356;2024-03-25T07:35:57;24.03;;;10.90;;
24617;SDS011;12762;51.730;5.356;2024-03-25T07:38:23;24.83;;;11.20;;
24617;SDS011;12762;51.730;5.356;2024-03-25T07:40:48;30.50;;;11.73;;
24617;SDS011;12762;51.730;5.356;2024-03-25T07:43:14;25.57;;;10.57;;
24617;SDS011;12762;51.730;5.356;2024-03-25T07:45:40;27.27;;;10.87;;
24617;SDS011;12762;51.730;5.356;2024-03-25T07:48:08;26.03;;;11.40;;
24617;SDS011;12762;51.730;5.356;2024-03-25T07:50:34;23.33;;;11.37;;
24617;SDS011;12762;51.730;5.356;2024-03-25T07:53:00;33.33;;;13.40;;
24617;SDS011;12762;51.730;5.356;2024-03-25T07:55:26;29.57;;;14.20;;
24617;SDS011;12762;51.730;5.356;2024-03-25T07:57:51;29.03;;;14.13;;
24617;SDS011;12762;51.730;5.356;2024-03-25T08:00:17;26.70;;;12.93;;
24617;SDS011;12762;51.730;5.356;2024-03-25T08:02:43;23.47;;;10.90;;
24617;SDS011;12762;51.730;5.356;2024-03-25T08:05:09;25.77;;;11.57;;
24617;SDS011;12762;51.730;5.356;2024-03-25T08:07:35;20.73;;;10.30;;
24617;SDS011;12762;51.730;5.356;2024-03-25T08:10:01;19.50;;;9.63;;
24617;SDS011;12762;51.730;5.356;2024-03-25T08:12:29;17.40;;;8.80;;
24617;SDS011;12762;51.730;5.356;2024-03-25T08:14:54;19.00;;;9.23;;
24617;SDS011;12762;51.730;5.356;2024-03-25T08:17:20;20.27;;;9.43;;
24617;SDS011;12762;51.730;5.356;2024-03-25T08:19:49;17.27;;;8.77;;
24617;SDS011;12762;51.730;5.356;2024-03-25T08:22:15;17.63;;;8.40;;
24617;SDS011;12762;51.730;5.356;2024-03-25T08:24:40;16.97;;;8.03;;
24617;SDS011;12762;51.730;5.356;2024-03-25T08:27:06;15.97;;;7.73;;
24617;SDS011;12762;51.730;5.356;2024-03-25T08:29:32;18.20;;;7.80;;
24617;SDS011;12762;51.730;5.356;2024-03-25T08:31:58;15.77;;;8.97;;
24617;SDS011;12762;51.730;5.356;2024-03-25T08:34:24;17.70;;;7.50;;
24617;SDS011;12762;51.730;5.356;2024-03-25T08:36:50;20.50;;;8.90;;
24617;SDS011;12762;51.730;5.356;2024-03-25T08:39:15;16.10;;;8.53;;
24617;SDS011;12762;51.730;5.356;2024-03-25T08:41:41;21.13;;;8.70;;
24617;SDS011;12762;51.730;5.356;2024-03-25T08:44:07;20.87;;;9.93;;
24617;SDS011;12762;51.730;5.356;2024-03-25T08:46:33;15.80;;;8.27;;
24617;SDS011;12762;51.730;5.356;2024-03-25T08:48:59;20.47;;;9.10;;
24617;SDS011;12762;51.730;5.356;2024-03-25T08:51:24;15.83;;;8.90;;
24617;SDS011;12762;51.730;5.356;2024-03-25T08:53:50;17.13;;;9.50;;
24617;SDS011;12762;51.730;5.356;2024-03-25T08:56:16;17.13;;;9.03;;
24617;SDS011;12762;51.730;5.356;2024-03-25T08:58:41;17.90;;;8.60;;
24617;SDS011;12762;51.730;5.356;2024-03-25T09:01:07;17.57;;;9.50;;
24617;SDS011;12762;51.730;5.356;2024-03-25T09:03:35;22.70;;;10.80;;
24617;SDS011;12762;51.730;5.356;2024-03-25T09:06:01;21.00;;;9.73;;
24617;SDS011;12762;51.730;5.356;2024-03-25T09:08:27;24.63;;;10.33;;
24617;SDS011;12762;51.730;5.356;2024-03-25T09:10:53;18.13;;;9.93;;
24617;SDS011;12762;51.730;5.356;2024-03-25T09:13:36;19.10;;;9.80;;
24617;SDS011;12762;51.730;5.356;2024-03-25T09:16:02;19.83;;;9.43;;
24617;SDS011;12762;51.730;5.356;2024-03-25T09:18:29;20.87;;;11.33;;
24617;SDS011;12762;51.730;5.356;2024-03-25T09:20:55;20.07;;;10.30;;
24617;SDS011;12762;51.730;5.356;2024-03-25T09:23:20;19.63;;;10.70;;
24617;SDS011;12762;51.730;5.356;2024-03-25T09:25:55;21.10;;;11.40;;
24617;SDS011;12762;51.730;5.356;2024-03-25T09:28:21;18.67;;;10.17;;
24617;SDS011;12762;51.730;5.356;2024-03-25T09:30:47;20.90;;;9.63;;
24617;SDS011;12762;51.730;5.356;2024-03-25T09:33:14;20.60;;;10.17;;
24617;SDS011;12762;51.730;5.356;2024-03-25T09:35:40;22.00;;;10.87;;
24617;SDS011;12762;51.730;5.356;2024-03-25T09:38:06;21.77;;;10.63;;
24617;SDS011;12762;51.730;5.356;2024-03-25T09:40:32;22.83;;;11.27;;
24617;SDS011;12762;51.730;5.356;2024-03-25T09:43:01;23.27;;;11.60;;
24617;SDS011;12762;51.730;5.356;2024-03-25T09:45:29;22.53;;;10.47;;
24617;SDS011;12762;51.730;5.356;2024-03-25T09:47:55;24.17;;;10.90;;
24617;SDS011;12762;51.730;5.356;2024-03-25T09:50:21;23.03;;;10.90;;
24617;SDS011;12762;51.730;5.356;2024-03-25T09:52:48;25.37;;;10.83;;
24617;SDS011;12762;51.730;5.356;2024-03-25T09:55:14;22.40;;;10.33;;
24617;SDS011;12762;51.730;5.356;2024-03-25T09:57:41;22.80;;;10.30;;
24617;SDS011;12762;51.730;5.356;2024-03-25T10:00:08;22.03;;;11.30;;
24617;SDS011;12762;51.730;5.356;2024-03-25T10:02:36;21.17;;;9.80;;
24617;SDS011;12762;51.730;5.356;2024-03-25T10:05:04;23.53;;;10.27;;
24617;SDS011;12762;51.730;5.356;2024-03-25T10:07:31;24.20;;;9.60;;
24617;SDS011;12762;51.730;5.356;2024-03-25T10:09:57;19.93;;;9.80;;
24617;SDS011;12762;51.730;5.356;2024-03-25T10:12:23;21.57;;;11.10;;
24617;SDS011;12762;51.730;5.356;2024-03-25T10:14:50;21.27;;;10.47;;
24617;SDS011;12762;51.730;5.356;2024-03-25T10:17:15;21.17;;;9.50;;
24617;SDS011;12762;51.730;5.356;2024-03-25T10:19:41;24.73;;;9.97;;
24617;SDS011;12762;51.730;5.356;2024-03-25T10:22:10;17.27;;;8.83;;
24617;SDS011;12762;51.730;5.356;2024-03-25T10:24:40;17.17;;;9.10;;
24617;SDS011;12762;51.730;5.356;2024-03-25T10:27:10;23.43;;;10.37;;
24617;SDS011;12762;51.730;5.356;2024-03-25T10:29:44;18.10;;;8.87;;
24617;SDS011;12762;51.730;5.356;2024-03-25T10:32:10;20.60;;;9.20;;
24617;SDS011;12762;51.730;5.356;2024-03-25T10:34:35;18.70;;;8.47;;
24617;SDS011;12762;51.730;5.356;2024-03-25T10:37:01;20.87;;;8.93;;
24617;SDS011;12762;51.730;5.356;2024-03-25T10:39:30;18.37;;;8.50;;
24617;SDS011;12762;51.730;5.356;2024-03-25T10:41:57;16.30;;;7.87;;
24617;SDS011;12762;51.730;5.356;2024-03-25T10:44:26;16.87;;;7.73;;
24617;SDS011;12762;51.730;5.356;2024-03-25T10:46:59;17.67;;;7.23;;
24617;SDS011;12762;51.730;5.356;2024-03-25T10:49:49;13.27;;;6.50;;
24617;SDS011;12762;51.730;5.356;2024-03-25T10:52:17;18.70;;;6.90;;
24617;SDS011;12762;51.730;5.356;2024-03-25T10:54:48;13.53;;;6.23;;
24617;SDS011;12762;51.730;5.356;2024-03-25T10:57:15;14.70;;;5.63;;
24617;SDS011;12762;51.730;5.356;2024-03-25T10:59:42;11.77;;;5.50;;
24617;SDS011;12762;51.730;5.356;2024-03-25T11:02:09;12.80;;;4.73;;
24617;SDS011;12762;51.730;5.356;2024-03-25T11:04:36;14.17;;;5.53;;
24617;SDS011;12762;51.730;5.356;2024-03-25T11:07:06;7.50;;;2.80;;
24617;SDS011;12762;51.730;5.356;2024-03-25T11:09:36;8.33;;;3.10;;
24617;SDS011;12762;51.730;5.356;2024-03-25T11:12:02;6.17;;;3.00;;
24617;SDS011;12762;51.730;5.356;2024-03-25T11:14:28;8.30;;;2.90;;
24617;SDS011;12762;51.730;5.356;2024-03-25T11:16:57;7.33;;;3.50;;
24617;SDS011;12762;51.730;5.356;2024-03-25T11:19:25;8.17;;;3.13;;
24617;SDS011;12762;51.730;5.356;2024-03-25T11:22:06;8.00;;;3.07;;
24617;SDS011;12762;51.730;5.356;2024-03-25T11:24:34;8.07;;;3.30;;
24617;SDS011;12762;51.730;5.356;2024-03-25T11:27:02;11.40;;;3.63;;
24617;SDS011;12762;51.730;5.356;2024-03-25T11:29:31;13.73;;;4.20;;
24617;SDS011;12762;51.730;5.356;2024-03-25T11:31:58;7.57;;;3.43;;
24617;SDS011;12762;51.730;5.356;2024-03-25T11:34:28;7.77;;;3.30;;
24617;SDS011;12762;51.730;5.356;2024-03-25T11:36:57;7.30;;;3.50;;
24617;SDS011;12762;51.730;5.356;2024-03-25T11:39:26;9.23;;;3.53;;
24617;SDS011;12762;51.730;5.356;2024-03-25T11:41:53;8.23;;;3.23;;
24617;SDS011;12762;51.730;5.356;2024-03-25T11:44:19;8.23;;;3.20;;
24617;SDS011;12762;51.730;5.356;2024-03-25T11:46:49;8.00;;;3.13;;
24617;SDS011;12762;51.730;5.356;2024-03-25T11:49:16;6.73;;;2.97;;
24617;SDS011;12762;51.730;5.356;2024-03-25T11:51:43;8.60;;;3.57;;
24617;SDS011;12762;51.730;5.356;2024-03-25T11:54:11;8.30;;;3.47;;
24617;SDS011;12762;51.730;5.356;2024-03-25T11:56:38;7.93;;;3.27;;
24617;SDS011;12762;51.730;5.356;2024-03-25T11:59:04;9.57;;;3.43;;
24617;SDS011;12762;51.730;5.356;2024-03-25T12:01:30;7.73;;;3.33;;
24617;SDS011;12762;51.730;5.356;2024-03-25T12:03:56;9.87;;;3.70;;
24617;SDS011;12762;51.730;5.356;2024-03-25T12:06:22;9.07;;;3.23;;
24617;SDS011;12762;51.730;5.356;2024-03-25T12:08:48;9.00;;;3.37;;
24617;SDS011;12762;51.730;5.356;2024-03-25T12:11:33;10.03;;;3.50;;
24617;SDS011;12762;51.730;5.356;2024-03-25T12:14:00;5.97;;;3.10;;
24617;SDS011;12762;51.730;5.356;2024-03-25T12:16:26;8.77;;;2.83;;
24617;SDS011;12762;51.730;5.356;2024-03-25T12:18:52;7.20;;;3.10;;
24617;SDS011;12762;51.730;5.356;2024-03-25T12:21:19;8.27;;;3.37;;
24617;SDS011;12762;51.730;5.356;2024-03-25T12:23:45;9.63;;;3.90;;
24617;SDS011;12762;51.730;5.356;2024-03-25T12:26:12;8.03;;;4.10;;
24617;SDS011;12762;51.730;5.356;2024-03-25T12:28:41;7.40;;;3.43;;
24617;SDS011;12762;51.730;5.356;2024-03-25T12:31:08;7.17;;;3.57;;
24617;SDS011;12762;51.730;5.356;2024-03-25T12:33:40;8.87;;;3.80;;
24617;SDS011;12762;51.730;5.356;2024-03-25T12:36:06;8.50;;;3.30;;
24617;SDS011;12762;51.730;5.356;2024-03-25T12:38:33;10.50;;;3.70;;
24617;SDS011;12762;51.730;5.356;2024-03-25T12:41:11;8.13;;;3.50;;
24617;SDS011;12762;51.730;5.356;2024-03-25T12:43:44;9.20;;;3.73;;
24617;SDS011;12762;51.730;5.356;2024-03-25T12:46:10;7.03;;;2.70;;
24617;SDS011;12762;51.730;5.356;2024-03-25T12:48:37;11.03;;;2.60;;
24617;SDS011;12762;51.730;5.356;2024-03-25T12:51:04;7.03;;;2.80;;
24617;SDS011;12762;51.730;5.356;2024-03-25T12:53:30;6.10;;;2.10;;
24617;SDS011;12762;51.730;5.356;2024-03-25T12:55:55;4.67;;;2.10;;
24617;SDS011;12762;51.730;5.356;2024-03-25T12:58:21;7.30;;;2.87;;
24617;SDS011;12762;51.730;5.356;2024-03-25T13:00:47;7.07;;;2.63;;
24617;SDS011;12762;51.730;5.356;2024-03-25T13:03:13;6.77;;;2.60;;
24617;SDS011;12762;51.730;5.356;2024-03-25T13:05:39;6.63;;;2.60;;
24617;SDS011;12762;51.730;5.356;2024-03-25T13:08:06;6.73;;;2.30;;
24617;SDS011;12762;51.730;5.356;2024-03-25T13:10:32;5.87;;;2.30;;
24617;SDS011;12762;51.730;5.356;2024-03-25T13:12:59;6.90;;;2.57;;
24617;SDS011;12762;51.730;5.356;2024-03-25T13:15:26;8.23;;;2.80;;
24617;SDS011;12762;51.730;5.356;2024-03-25T13:17:53;5.00;;;2.43;;
24617;SDS011;12762;51.730;5.356;2024-03-25T13:25:43;4.30;;;1.90;;
24617;SDS011;12762;51.730;5.356;2024-03-25T13:28:09;5.77;;;2.10;;
24617;SDS011;12762;51.730;5.356;2024-03-25T13:30:34;3.73;;;1.73;;
24617;SDS011;12762;51.730;5.356;2024-03-25T13:33:00;6.67;;;2.23;;
24617;SDS011;12762;51.730;5.356;2024-03-25T13:35:26;6.97;;;2.50;;
24617;SDS011;12762;51.730;5.356;2024-03-25T13:37:52;7.83;;;2.60;;
24617;SDS011;12762;51.730;5.356;2024-03-25T13:40:18;7.00;;;2.70;;
24617;SDS011;12762;51.730;5.356;2024-03-25T13:42:44;6.33;;;2.70;;
24617;SDS011;12762;51.730;5.356;2024-03-25T13:45:10;7.93;;;2.97;;
24617;SDS011;12762;51.730;5.356;2024-03-25T13:47:36;7.20;;;2.80;;
24617;SDS011;12762;51.730;5.356;2024-03-25T13:50:02;7.27;;;2.80;;
24617;SDS011;12762;51.730;5.356;2024-03-25T13:52:29;6.50;;;3.13;;
24617;SDS011;12762;51.730;5.356;2024-03-25T13:54:54;8.90;;;3.63;;
24617;SDS011;12762;51.730;5.356;2024-03-25T13:57:20;7.97;;;2.73;;
24617;SDS011;12762;51.730;5.356;2024-03-25T13:59:47;6.70;;;2.60;;
24617;SDS011;12762;51.730;5.356;2024-03-25T14:02:15;6.80;;;2.60;;
24617;SDS011;12762;51.730;5.356;2024-03-25T14:04:41;5.53;;;2.53;;
24617;SDS011;12762;51.730;5.356;2024-03-25T14:07:06;5.53;;;2.47;;
24617;SDS011;12762;51.730;5.356;2024-03-25T14:09:32;7.50;;;2.90;;
24617;SDS011;12762;51.730;5.356;2024-03-25T14:11:58;6.77;;;2.37;;
24617;SDS011;12762;51.730;5.356;2024-03-25T14:14:24;6.63;;;2.50;;
24617;SDS011;12762;51.730;5.356;2024-03-25T14:16:50;8.70;;;3.00;;
24617;SDS011;12762;51.730;5.356;2024-03-25T14:19:15;5.80;;;2.50;;
24617;SDS011;12762;51.730;5.356;2024-03-25T14:21:42;7.07;;;2.90;;
24617;SDS011;12762;51.730;5.356;2024-03-25T14:24:08;6.30;;;2.40;;
24617;SDS011;12762;51.730;5.356;2024-03-25T14:26:33;7.23;;;2.60;;
24617;SDS011;12762;51.730;5.356;2024-03-25T14:29:02;5.67;;;2.60;;
24617;SDS011;12762;51.730;5.356;2024-03-25T14:31:29;8.93;;;2.70;;
24617;SDS011;12762;51.730;5.356;2024-03-25T14:33:55;7.67;;;2.60;;
24617;SDS011;12762;51.730;5.356;2024-03-25T14:36:21;8.10;;;3.00;;
24617;SDS011;12762;51.730;5.356;2024-03-25T14:38:48;8.13;;;3.20;;
24617;SDS011;12762;51.730;5.356;2024-03-25T14:41:18;7.23;;;2.60;;
24617;SDS011;12762;51.730;5.356;2024-03-25T14:43:44;5.83;;;2.37;;
24617;SDS011;12762;51.730;5.356;2024-03-25T14:46:10;9.47;;;3.17;;
24617;SDS011;12762;51.730;5.356;2024-03-25T14:48:39;6.43;;;2.80;;
24617;SDS011;12762;51.730;5.356;2024-03-25T14:51:04;5.47;;;2.70;;
24617;SDS011;12762;51.730;5.356;2024-03-25T14:53:30;7.23;;;3.03;;
24617;SDS011;12762;51.730;5.356;2024-03-25T14:55:56;5.53;;;2.23;;
24617;SDS011;12762;51.730;5.356;2024-03-25T14:58:22;4.93;;;2.20;;
24617;SDS011;12762;51.730;5.356;2024-03-25T15:00:48;6.13;;;2.20;;